Terminal Aerodrome Forecast
Issued by NWS Twin Cities, MN

Home | Current Version | Previous Version | Graphics & Text | Print | Product List | Glossary On
Versions: 1 2 3 4 5 6 7 8 9 10 11 12 13 14 15
000
FTUS43 KMPX 241722
TAFEAU
TAF
KEAU 241722Z 2418/2518 06008KT P6SM SCT035 BKN045
     FM250200 VRB03KT P6SM SCT070
     FM251000 06002KT 2SM BR SCT015
     FM251400 13005KT P6SM SCT050=

USA.gov is the U.S. government's official web portal to all federal, state and local government web resources and services.